createdAt,value
2023-03-01T00:01:48.429Z,95.8
2023-03-01T00:04:14.467Z,95.8
2023-03-01T00:06:40.643Z,96
2023-03-01T00:09:06.605Z,96.1
2023-03-01T00:11:32.864Z,96
2023-03-01T00:13:57.910Z,96.2
2023-03-01T00:16:23.888Z,96.2
2023-03-01T00:18:50.118Z,96.2
2023-03-01T00:21:16.168Z,96.1
2023-03-01T00:23:42.363Z,96
2023-03-01T00:26:08.272Z,96
2023-03-01T00:28:34.408Z,96
2023-03-01T00:31:00.473Z,96.3
2023-03-01T00:33:26.677Z,96.2
2023-03-01T00:35:52.849Z,96.3
2023-03-01T00:38:18.819Z,96.3
2023-03-01T00:40:44.881Z,96.5
2023-03-01T00:43:10.991Z,96.7
2023-03-01T00:45:36.088Z,96.9
2023-03-01T00:48:02.244Z,97
2023-03-01T00:50:28.278Z,96.6
2023-03-01T00:52:54.507Z,96.7
2023-03-01T00:55:20.541Z,96.6
2023-03-01T00:57:46.773Z,96.7
2023-03-01T01:00:12.720Z,96.9
2023-03-01T01:02:38.897Z,96.8
2023-03-01T01:05:04.875Z,96.9
2023-03-01T01:07:31.056Z,97
2023-03-01T01:09:57.180Z,97.1
2023-03-01T01:12:23.228Z,97
2023-03-01T01:14:49.431Z,97
2023-03-01T01:17:14.363Z,97.3
2023-03-01T01:19:40.593Z,97.3
2023-03-01T01:22:06.552Z,97.3
2023-03-01T01:24:32.816Z,97.3
2023-03-01T01:26:58.820Z,97.6
2023-03-01T01:29:24.911Z,97.5
2023-03-01T01:31:51.114Z,97.4
2023-03-01T01:34:17.178Z,97.4
2023-03-01T01:36:43.317Z,97.4
2023-03-01T01:39:09.238Z,97.4
2023-03-01T01:41:35.485Z,97.3
2023-03-01T01:44:01.420Z,97.3
2023-03-01T01:46:27.652Z,97.2
2023-03-01T01:48:52.734Z,97.1
2023-03-01T01:51:18.731Z,97.1
2023-03-01T01:53:45.025Z,97
2023-03-01T01:56:10.955Z,96.9
2023-03-01T01:58:37.150Z,96.7
2023-03-01T02:01:03.234Z,96.6
2023-03-01T02:03:29.271Z,96.8
2023-03-01T02:05:55.398Z,96.9
2023-03-01T02:08:21.555Z,96.8
2023-03-01T02:10:47.590Z,96.5
2023-03-01T02:13:13.692Z,96
2023-03-01T02:15:39.735Z,95.9
2023-03-01T02:18:05.900Z,95.9
2023-03-01T02:20:30.972Z,96
2023-03-01T02:22:57.129Z,96.1
2023-03-01T02:25:23.197Z,96.1
2023-03-01T02:27:49.311Z,96.1
2023-03-01T02:30:15.402Z,96
2023-03-01T02:32:41.385Z,95.9
2023-03-01T02:35:07.495Z,95.8
2023-03-01T02:37:33.746Z,96
2023-03-01T02:39:59.829Z,96
2023-03-01T02:42:25.893Z,96
2023-03-01T02:44:51.887Z,96.1
2023-03-01T02:47:18.028Z,96.2
2023-03-01T02:49:44.217Z,96.3
2023-03-01T02:52:09.327Z,96.4
2023-03-01T02:54:35.288Z,96.4
2023-03-01T02:57:01.550Z,96.3
2023-03-01T02:59:27.587Z,96.1
2023-03-01T03:01:53.569Z,96
2023-03-01T03:04:19.781Z,95.8
2023-03-01T03:06:45.768Z,95.7
2023-03-01T03:09:11.874Z,95.7
2023-03-01T03:11:38.114Z,95.6
2023-03-01T03:14:04.056Z,95.6
2023-03-01T03:16:30.175Z,95.3
2023-03-01T03:18:56.379Z,95.1
2023-03-01T03:21:22.436Z,94.9
2023-03-01T03:23:47.478Z,95
2023-03-01T03:26:13.683Z,95
2023-03-01T03:28:39.802Z,94.5
2023-03-01T03:31:05.752Z,94.3
2023-03-01T03:33:32.083Z,94.2
2023-03-01T03:35:57.958Z,94.2
2023-03-01T03:38:24.050Z,94.2
2023-03-01T03:40:50.277Z,93.9
2023-03-01T03:43:16.327Z,93.4
2023-03-01T03:45:42.458Z,93.1
2023-03-01T03:48:08.475Z,93
2023-03-01T03:50:34.535Z,92.3
2023-03-01T03:53:00.781Z,92.3
2023-03-01T03:55:25.749Z,92.5
2023-03-01T03:57:51.949Z,92.1
2023-03-01T04:00:17.934Z,91.8
2023-03-01T04:02:44.096Z,91.8
2023-03-01T04:05:10.307Z,91.8
2023-03-01T04:07:36.411Z,92
2023-03-01T04:10:02.418Z,91.9
2023-03-01T04:12:28.467Z,91.8
2023-03-01T04:14:54.543Z,91.6
2023-03-01T04:17:20.746Z,91.6
2023-03-01T04:19:46.808Z,91.6
2023-03-01T04:22:12.879Z,91.8
2023-03-01T04:24:39.107Z,91.8
2023-03-01T04:27:04.080Z,91.8
2023-03-01T04:29:30.321Z,91.8
2023-03-01T04:31:56.313Z,91.7
2023-03-01T04:34:22.401Z,91.7
2023-03-01T04:36:48.504Z,91.8
2023-03-01T04:39:14.629Z,92
2023-03-01T04:41:40.613Z,92
2023-03-01T04:44:06.826Z,92.1
2023-03-01T04:46:32.879Z,92
2023-03-01T04:48:58.933Z,91.3
2023-03-01T04:51:25.109Z,91.5
2023-03-01T04:53:51.162Z,91.5
2023-03-01T04:56:17.177Z,91.4
2023-03-01T04:58:42.575Z,91.2
2023-03-01T05:01:08.616Z,91.2
2023-03-01T05:03:34.499Z,90.8
2023-03-01T05:06:00.663Z,90.5
2023-03-01T05:08:26.734Z,90.6
2023-03-01T05:10:52.956Z,90.5
2023-03-01T05:13:18.967Z,90.7
2023-03-01T05:15:44.974Z,90.9
2023-03-01T05:18:11.073Z,91
2023-03-01T05:20:37.375Z,90.9
2023-03-01T05:23:03.381Z,91.1
2023-03-01T05:25:29.416Z,90.8
2023-03-01T05:27:55.535Z,91.1
2023-03-01T05:30:20.613Z,91.1
2023-03-01T05:32:46.726Z,91.2
2023-03-01T05:35:12.806Z,91.1
2023-03-01T05:37:39.123Z,91
2023-03-01T05:40:05.050Z,91
2023-03-01T05:42:31.286Z,91
2023-03-01T05:44:57.376Z,90.9
2023-03-01T05:47:23.475Z,90.9
2023-03-01T05:49:49.471Z,90.8
2023-03-01T05:52:15.474Z,91.1
2023-03-01T05:54:41.570Z,91.3
2023-03-01T05:57:07.750Z,91.2
2023-03-01T05:59:33.879Z,90.9
2023-03-01T06:01:59.008Z,91
2023-03-01T06:04:24.989Z,90.4
2023-03-01T06:06:51.060Z,90.2
2023-03-01T06:09:17.332Z,90.3
2023-03-01T06:11:43.402Z,90.7
2023-03-01T06:14:09.409Z,90.8
2023-03-01T06:16:35.480Z,91
2023-03-01T06:19:01.591Z,91.1
2023-03-01T06:21:27.752Z,91.4
2023-03-01T06:23:53.756Z,91.4
2023-03-01T06:26:19.861Z,91.7
2023-03-01T06:28:45.946Z,91.8
2023-03-01T06:31:12.129Z,91.9
2023-03-01T06:33:37.169Z,92
2023-03-01T06:36:03.373Z,92.1
2023-03-01T06:38:29.360Z,92.3
2023-03-01T06:40:55.541Z,92.7
2023-03-01T06:43:21.616Z,92.9
2023-03-01T06:45:47.778Z,92.9
2023-03-01T06:48:13.877Z,92.6
2023-03-01T06:50:39.894Z,92.8
2023-03-01T06:53:06.050Z,92.8
2023-03-01T06:55:32.130Z,93.2
2023-03-01T06:57:58.248Z,93.2
2023-03-01T07:00:24.212Z,92.9
2023-03-01T07:02:50.361Z,92.9
2023-03-01T07:05:15.570Z,92.9
2023-03-01T07:07:41.698Z,93
2023-03-01T07:10:07.633Z,93.3
2023-03-01T07:12:33.823Z,93.2
2023-03-01T07:14:59.837Z,92.9
2023-03-01T07:17:26.121Z,92.7
2023-03-01T07:19:52.028Z,92.4
2023-03-01T07:22:18.200Z,92
2023-03-01T07:24:44.346Z,91.4
2023-03-01T07:27:10.345Z,90.8
2023-03-01T07:29:36.525Z,89.6
2023-03-01T07:32:02.626Z,88.2
2023-03-01T07:34:28.814Z,87.7
2023-03-01T07:36:53.917Z,86.6
2023-03-01T07:39:19.974Z,85.9
2023-03-01T07:41:46.050Z,85
2023-03-01T07:44:12.068Z,84.5
2023-03-01T07:46:38.336Z,84.4
2023-03-01T07:49:04.337Z,84.4
2023-03-01T07:51:29.364Z,83.1
2023-03-01T07:53:55.555Z,82.6
2023-03-01T07:56:21.518Z,82.4
2023-03-01T07:58:47.774Z,82
2023-03-01T08:01:13.726Z,81.7
2023-03-01T08:03:39.853Z,81.7
2023-03-01T08:06:06.044Z,81.1
2023-03-01T08:08:32.189Z,80.7
2023-03-01T08:10:58.253Z,80.4
2023-03-01T08:13:24.385Z,80.3
2023-03-01T08:15:50.440Z,80
2023-03-01T08:18:16.473Z,79.6
2023-03-01T08:20:42.559Z,79.6
2023-03-01T08:23:07.598Z,79.8
2023-03-01T08:25:33.709Z,79.8
2023-03-01T08:27:59.956Z,79.5
2023-03-01T08:30:25.960Z,79.6
2023-03-01T08:32:52.116Z,79.4
2023-03-01T08:35:18.258Z,78.9
2023-03-01T08:37:44.349Z,78.5
2023-03-01T08:40:10.455Z,78
2023-03-01T08:42:36.494Z,78.1
2023-03-01T08:45:02.629Z,77.5
2023-03-01T08:49:54.749Z,76.9
2023-03-01T08:52:20.786Z,77
2023-03-01T08:54:46.057Z,75.9
2023-03-01T08:57:12.021Z,75.5
2023-03-01T08:59:38.254Z,76.4
2023-03-01T09:02:04.336Z,75.5
2023-03-01T09:04:30.489Z,75.6
2023-03-01T09:06:56.505Z,75
2023-03-01T09:09:22.710Z,74.1
2023-03-01T09:11:48.626Z,74.1
2023-03-01T09:14:14.750Z,73.9
2023-03-01T09:16:40.987Z,74.4
2023-03-01T09:19:07.078Z,73.7
2023-03-01T09:21:33.156Z,73.5
2023-03-01T09:23:59.156Z,72.3
2023-03-01T09:26:24.268Z,72.7
2023-03-01T09:28:50.473Z,72.5
2023-03-01T09:31:16.561Z,72.1
2023-03-01T09:33:42.664Z,71.3
2023-03-01T09:36:08.790Z,71.3
2023-03-01T09:38:34.832Z,71
2023-03-01T09:41:00.952Z,71.1
2023-03-01T09:43:26.956Z,70.5
2023-03-01T09:45:53.111Z,70
2023-03-01T09:48:19.261Z,70.1
2023-03-01T09:50:45.179Z,69.4
2023-03-01T09:53:11.441Z,69.4
2023-03-01T09:55:37.511Z,69.2
2023-03-01T09:58:02.449Z,69
2023-03-01T10:00:28.561Z,68.7
2023-03-01T10:02:54.835Z,68.8
2023-03-01T10:05:20.742Z,69.1
2023-03-01T10:07:47.045Z,68.6
2023-03-01T10:10:13.039Z,68.9
2023-03-01T10:12:39.252Z,68.3
2023-03-01T10:15:05.160Z,68.9
2023-03-01T10:17:31.452Z,68.3
2023-03-01T10:19:57.498Z,68.1
2023-03-01T10:22:23.597Z,67.1
2023-03-01T10:24:49.718Z,67.5
2023-03-01T10:27:15.675Z,67.7
2023-03-01T10:29:40.905Z,67.1
2023-03-01T10:32:06.958Z,66.7
2023-03-01T10:34:33.092Z,67
2023-03-01T10:36:59.130Z,66.8
2023-03-01T10:39:25.289Z,66.3
2023-03-01T10:41:51.331Z,66.6
2023-03-01T10:44:17.407Z,66.1
2023-03-01T10:46:43.547Z,65.4
2023-03-01T10:49:09.649Z,65.5
2023-03-01T10:51:35.610Z,65.5
2023-03-01T10:54:01.880Z,65.4
2023-03-01T10:56:27.934Z,65.4
2023-03-01T10:58:53.980Z,65.8
2023-03-01T11:01:19.137Z,64
2023-03-01T11:03:45.169Z,63.6
2023-03-01T11:06:11.232Z,64.1
2023-03-01T11:08:37.398Z,63.6
2023-03-01T11:11:03.602Z,64
2023-03-01T11:13:29.722Z,63.7
2023-03-01T11:15:55.796Z,63.1
2023-03-01T11:18:21.926Z,62.7
2023-03-01T11:20:47.862Z,63
2023-03-01T11:23:14.086Z,62.3
2023-03-01T11:25:40.106Z,62.6
2023-03-01T11:28:06.210Z,62.3
2023-03-01T11:30:32.288Z,62.5
2023-03-01T11:32:57.438Z,62
2023-03-01T11:35:23.544Z,62.1
2023-03-01T11:37:49.590Z,61.9
2023-03-01T11:40:15.713Z,62.4
2023-03-01T11:42:41.768Z,62.2
2023-03-01T11:45:07.737Z,62.5
2023-03-01T11:47:34.023Z,61.8
2023-03-01T11:50:00.078Z,62
2023-03-01T11:52:26.248Z,61.9
2023-03-01T11:54:52.347Z,61.6
2023-03-01T11:57:18.432Z,61.8
2023-03-01T11:59:44.369Z,62
2023-03-01T12:02:10.462Z,62.3
2023-03-01T12:04:35.587Z,61.7
2023-03-01T12:07:01.863Z,61.8
2023-03-01T12:09:27.986Z,62.3
2023-03-01T12:11:54.082Z,62
2023-03-01T12:14:20.106Z,62.1
2023-03-01T12:16:46.230Z,62.3
2023-03-01T12:19:12.265Z,62
2023-03-01T12:21:38.372Z,61.6
2023-03-01T12:24:04.504Z,62.2
2023-03-01T12:26:30.545Z,61.8
2023-03-01T12:28:56.600Z,61.8
2023-03-01T12:33:48.741Z,61.1
2023-03-01T12:36:13.919Z,61.2
2023-03-01T12:38:39.981Z,60.8
2023-03-01T12:41:06.012Z,60.8
2023-03-01T12:43:32.145Z,61.2
2023-03-01T12:45:58.310Z,60.4
2023-03-01T12:48:24.292Z,60.7
2023-03-01T12:50:50.358Z,60.6
2023-03-01T12:53:16.504Z,60.9
2023-03-01T12:55:42.565Z,60.4
2023-03-01T12:58:08.657Z,60.2
2023-03-01T13:00:34.892Z,60.8
2023-03-01T13:03:00.867Z,60.2
2023-03-01T13:05:26.993Z,60
2023-03-01T13:07:52.105Z,60.4
2023-03-01T13:10:18.203Z,59.8
2023-03-01T13:12:44.242Z,59.5
2023-03-01T13:15:10.352Z,59.2
2023-03-01T13:17:36.428Z,59.1
2023-03-01T13:20:02.658Z,59.5
2023-03-01T13:22:28.668Z,59.2
2023-03-01T13:24:54.731Z,59.2
2023-03-01T13:27:20.923Z,59.1
2023-03-01T13:29:47.102Z,58.7
2023-03-01T13:32:13.060Z,58.4
2023-03-01T13:34:39.101Z,58.5
2023-03-01T13:37:05.263Z,58.5
2023-03-01T13:39:30.551Z,58.2
2023-03-01T13:41:56.521Z,57.8
2023-03-01T13:44:22.637Z,57.6
2023-03-01T13:46:48.906Z,57.8
2023-03-01T13:49:14.873Z,57.7
2023-03-01T13:51:40.948Z,57.3
2023-03-01T13:54:06.881Z,57.4
2023-03-01T13:56:32.984Z,57.4
2023-03-01T13:58:59.312Z,57.1
2023-03-01T14:01:25.202Z,57.5
2023-03-01T14:03:51.408Z,57.8
2023-03-01T14:06:17.441Z,58
2023-03-01T14:08:43.632Z,58.2
2023-03-01T14:11:09.584Z,57.4
2023-03-01T14:13:34.676Z,56.8
2023-03-01T14:16:00.814Z,57.1
2023-03-01T14:18:27.071Z,57.3
2023-03-01T14:20:53.211Z,57.2
2023-03-01T14:23:19.260Z,57
2023-03-01T14:25:45.318Z,57.1
2023-03-01T14:28:11.503Z,56.7
2023-03-01T14:30:37.427Z,56.8
2023-03-01T14:33:03.609Z,57
2023-03-01T14:35:29.711Z,56.8
2023-03-01T14:37:55.695Z,56.7
2023-03-01T14:40:21.768Z,56.2
2023-03-01T14:42:47.833Z,56.6
2023-03-01T14:45:12.970Z,56.3
2023-03-01T14:47:39.249Z,56.4
2023-03-01T14:50:05.274Z,56.3
2023-03-01T14:52:31.383Z,56.2
2023-03-01T14:54:57.522Z,56
2023-03-01T14:57:23.647Z,55.7
2023-03-01T14:59:49.623Z,54.6
2023-03-01T15:02:15.720Z,52.7
2023-03-01T15:04:41.854Z,51.7
2023-03-01T15:07:07.782Z,52.9
2023-03-01T15:09:33.899Z,54.3
2023-03-01T15:12:00.205Z,55.3
2023-03-01T15:14:26.089Z,56.1
2023-03-01T15:16:51.377Z,56.6
2023-03-01T15:19:17.403Z,56.2
2023-03-01T15:21:43.478Z,56
2023-03-01T15:24:09.567Z,56.4
2023-03-01T15:26:35.631Z,56.9
2023-03-01T15:29:01.850Z,57.4
2023-03-01T15:31:27.781Z,57.3
2023-03-01T15:33:54.030Z,57
2023-03-01T15:36:20.112Z,57.4
2023-03-01T15:38:46.193Z,57.3
2023-03-01T15:41:12.167Z,57.5
2023-03-01T15:43:38.401Z,57.5
2023-03-01T15:46:04.402Z,57.6
2023-03-01T15:48:30.503Z,57.6
2023-03-01T15:50:56.660Z,58
2023-03-01T15:53:22.754Z,58.4
2023-03-01T15:55:48.858Z,58.6
2023-03-01T15:58:14.832Z,58.6
2023-03-01T16:00:40.971Z,58.6
2023-03-01T16:03:06.123Z,58.6
2023-03-01T16:05:32.122Z,58.9
2023-03-01T16:07:58.349Z,59.2
2023-03-01T16:10:24.490Z,58.6
2023-03-01T16:12:50.574Z,58.5
2023-03-01T16:15:16.617Z,58.9
2023-03-01T16:17:42.615Z,58.6
2023-03-01T16:20:08.720Z,58.6
2023-03-01T16:22:34.940Z,58.8
2023-03-01T16:25:01.055Z,59.3
2023-03-01T16:27:27.130Z,59.6
2023-03-01T16:29:53.087Z,59.4
2023-03-01T16:32:19.204Z,59.3
2023-03-01T16:34:45.411Z,59.1
2023-03-01T16:37:11.407Z,59.6
2023-03-01T16:39:37.690Z,59.7
2023-03-01T16:42:03.650Z,59.7
2023-03-01T16:44:29.852Z,59.8
2023-03-01T16:46:55.954Z,60.1
2023-03-01T16:49:21.976Z,60.5
2023-03-01T16:51:47.999Z,60.5
2023-03-01T16:54:13.082Z,60.7
2023-03-01T16:56:39.349Z,61
2023-03-01T16:59:05.353Z,61.2
2023-03-01T17:01:31.453Z,61.4
2023-03-01T17:03:57.544Z,62
2023-03-01T17:06:23.539Z,62.1
2023-03-01T17:08:49.798Z,62.5
2023-03-01T17:11:15.803Z,63.4
2023-03-01T17:13:42.011Z,63.8
2023-03-01T17:16:08.198Z,65.1
2023-03-01T17:18:34.229Z,64.4
2023-03-01T17:21:00.183Z,64.5
2023-03-01T17:23:26.328Z,65.4
2023-03-01T17:25:51.524Z,65.8
2023-03-01T17:28:17.662Z,67.4
2023-03-01T17:30:43.574Z,68.2
2023-03-01T17:33:09.694Z,69.2
2023-03-01T17:35:35.884Z,69.9
2023-03-01T17:38:01.862Z,71.1
2023-03-01T17:40:27.993Z,71.9
2023-03-01T17:42:54.052Z,72.8
2023-03-01T17:45:20.282Z,73.1
2023-03-01T17:47:46.216Z,74.3
2023-03-01T17:50:12.325Z,74.5
2023-03-01T17:52:38.500Z,75.6
2023-03-01T17:55:04.500Z,76
2023-03-01T17:57:29.766Z,76.7
2023-03-01T17:59:55.863Z,76.7
2023-03-01T18:02:21.972Z,77.6
2023-03-01T18:04:48.090Z,77.8
2023-03-01T18:07:14.070Z,78.4
2023-03-01T18:09:40.071Z,78.4
2023-03-01T18:12:06.250Z,79
2023-03-01T18:14:32.289Z,79.7
2023-03-01T18:16:58.449Z,79.8
2023-03-01T18:19:24.655Z,80.8
2023-03-01T18:21:50.791Z,80.7
2023-03-01T18:24:16.800Z,80.7
2023-03-01T18:26:42.909Z,81.6
2023-03-01T18:29:08.104Z,81.7
2023-03-01T18:31:34.165Z,81.3
2023-03-01T18:34:00.245Z,81.5
2023-03-01T18:36:26.261Z,81.9
2023-03-01T18:38:52.396Z,82.1
2023-03-01T18:41:18.421Z,82.6
2023-03-01T18:43:44.550Z,82.9
2023-03-01T18:46:10.604Z,82.9
2023-03-01T18:48:36.728Z,83.7
2023-03-01T18:51:02.922Z,83.5
2023-03-01T18:53:29.014Z,83.7
2023-03-01T18:55:55.047Z,83.6
2023-03-01T18:58:21.166Z,83.6
2023-03-01T19:00:46.147Z,84.3
2023-03-01T19:03:12.443Z,84.4
2023-03-01T19:05:38.538Z,84.6
2023-03-01T19:08:04.629Z,84.6
2023-03-01T19:10:30.694Z,84.9
2023-03-01T19:12:56.632Z,85.4
2023-03-01T19:15:22.873Z,85.6
2023-03-01T19:17:48.902Z,85.4
2023-03-01T19:20:15.052Z,85.7
2023-03-01T19:22:41.172Z,86
2023-03-01T19:25:07.239Z,86.2
2023-03-01T19:27:33.429Z,86.1
2023-03-01T19:29:59.577Z,86.4
2023-03-01T19:32:24.581Z,86.6
2023-03-01T19:34:50.683Z,86.7
2023-03-01T19:37:16.607Z,86.9
2023-03-01T19:39:42.863Z,87.2
2023-03-01T19:42:08.980Z,87.3
2023-03-01T19:44:35.065Z,87.8
2023-03-01T19:47:01.178Z,87.9
2023-03-01T19:49:27.098Z,88.3
2023-03-01T19:51:53.363Z,88.5
2023-03-01T19:54:19.450Z,88.8
2023-03-01T19:56:45.573Z,88.2
2023-03-01T19:59:11.491Z,88.2
2023-03-01T20:01:37.675Z,88.1
2023-03-01T20:04:02.702Z,88
2023-03-01T20:06:28.937Z,87.9
2023-03-01T20:08:55.082Z,87.7
2023-03-01T20:11:21.122Z,87.5
2023-03-01T20:13:47.098Z,87.5
2023-03-01T20:16:13.341Z,87.5
2023-03-01T20:18:39.445Z,87.5
2023-03-01T20:21:05.580Z,87.5
2023-03-01T20:23:31.487Z,87.7
2023-03-01T20:25:57.708Z,87.8
2023-03-01T20:28:23.685Z,87.9
2023-03-01T20:30:49.920Z,88.2
2023-03-01T20:33:16.076Z,88.6
2023-03-01T20:35:41.024Z,88.7
2023-03-01T20:38:07.181Z,88.9
2023-03-01T20:40:33.340Z,89.1
2023-03-01T20:42:59.447Z,89.1
2023-03-01T20:45:25.507Z,89.3
2023-03-01T20:47:51.573Z,89.8
2023-03-01T20:50:17.755Z,90.1
2023-03-01T20:52:43.816Z,90.4
2023-03-01T20:55:09.923Z,90.6
2023-03-01T20:57:36.028Z,91
2023-03-01T21:00:02.248Z,91.3
2023-03-01T21:02:28.203Z,91.4
2023-03-01T21:04:54.380Z,91.8
2023-03-01T21:07:19.444Z,91.8
2023-03-01T21:09:45.470Z,92
2023-03-01T21:12:11.663Z,92.1
2023-03-01T21:14:37.706Z,92.2
2023-03-01T21:17:03.815Z,92.3
2023-03-01T21:19:29.855Z,92.5
2023-03-01T21:21:56.076Z,92.5
2023-03-01T21:24:22.152Z,92.7
2023-03-01T21:26:48.255Z,92.7
2023-03-01T21:29:14.316Z,92.7
2023-03-01T21:31:40.459Z,92.8
2023-03-01T21:34:06.511Z,93.1
2023-03-01T21:36:32.578Z,93.2
2023-03-01T21:38:57.727Z,93.2
2023-03-01T21:41:23.660Z,93.5
2023-03-01T21:43:49.929Z,93.4
2023-03-01T21:46:16.024Z,93.5
2023-03-01T21:48:41.966Z,93.7
2023-03-01T21:51:08.235Z,93.5
2023-03-01T21:53:34.294Z,93.5
2023-03-01T21:56:00.385Z,93.4
2023-03-01T21:58:26.329Z,93.8
2023-03-01T22:00:52.421Z,93.8
2023-03-01T22:03:18.677Z,93.8
2023-03-01T22:05:44.644Z,94
2023-03-01T22:08:10.878Z,94.1
2023-03-01T22:10:35.987Z,94.2
2023-03-01T22:13:02.142Z,94.2
2023-03-01T22:15:28.117Z,94.2
2023-03-01T22:17:54.225Z,94.4
2023-03-01T22:20:20.383Z,94.4
2023-03-01T22:22:46.359Z,94.3
2023-03-01T22:25:12.503Z,94.1
2023-03-01T22:27:38.605Z,94.1
2023-03-01T22:30:16.503Z,94
2023-03-01T22:32:30.746Z,93.9
2023-03-01T22:34:56.968Z,93.8
2023-03-01T22:37:23.023Z,93.8
2023-03-01T22:39:49.214Z,93.8
2023-03-01T22:42:14.236Z,94
2023-03-01T22:44:40.202Z,94.2
2023-03-01T22:47:06.315Z,94.1
2023-03-01T22:49:32.589Z,94.1
2023-03-01T22:51:58.630Z,94.2
2023-03-01T22:54:24.618Z,94.2
2023-03-01T22:56:50.764Z,94.1
2023-03-01T22:59:16.806Z,94
2023-03-01T23:01:43.085Z,93.8
2023-03-01T23:04:09.191Z,93.8
2023-03-01T23:06:35.306Z,93.8
2023-03-01T23:09:01.348Z,94.1
2023-03-01T23:11:27.499Z,94.2
2023-03-01T23:13:52.606Z,94.4
2023-03-01T23:16:18.588Z,94.5
2023-03-01T23:18:44.772Z,94.7
2023-03-01T23:21:10.882Z,94.8
2023-03-01T23:23:36.787Z,95.1
2023-03-01T23:26:03.079Z,95.2
2023-03-01T23:28:29.156Z,95.2
2023-03-01T23:30:55.241Z,95.4
2023-03-01T23:33:21.234Z,95.5
2023-03-01T23:35:47.438Z,95.5
2023-03-01T23:38:13.544Z,95.5
2023-03-01T23:40:39.619Z,95.7
2023-03-01T23:43:05.556Z,95.8
2023-03-01T23:45:30.819Z,95.9
2023-03-01T23:47:56.928Z,95.9
2023-03-01T23:50:22.963Z,96
2023-03-01T23:52:49.011Z,96.2
2023-03-01T23:55:15.266Z,96.3
2023-03-01T23:57:41.358Z,96.5
